Mirny, Russia
Current Conditions -  °F | °C
As of 9:00 AM on Friday 19 Dec 2014 (Local Time) from URKK Reporting Station
Broken Clouds Broken Clouds  
Wind Chill: 44°   Ceiling: 5300
Heat Index: 48°   Visibility: 6mi
Dew Point: 46°   Wind: 9mph
Humidity: 93%   Direction: 190°S
Pressure: 30.03"   Gusts: NA
Location:  45.55°N, 38.91°E
Report Text: URKK 190600Z 19004MPS 9999 FEW033CB BKN053 09/08 Q1017 NOSIGRMK QFE759 SC060
Loading
Personal Weather Stations






























Interactive Weather Map New forecast layout! Learn more

10-Day Weather Forecast

Advertisements
Track Severe Weather on mobile